• Join FlightAware (Why Join?)
  • Login
  • US Flag 
04:39PM EDT


 

Airport Tracker/Info


-or-


 

Live Flight TrackerFlight Track Log ✈ AAL2007 ✈ 22-Apr-2013 ✈ KORD - KAUS

Flight Track Log - Related Links

Times and Time Zones

All times are in EDT time to prevent confusion due to time zone crossing. See the AAL2007 flight status page for this flight to view local times or setup timezone preferences in your user account.

Time Position Orientation Groundspeed Altitude Reporting Facility
EDT Latitude Longitude Course Direction KTS MPH feet Rate Location/Type
06:37PM 41.9167 -87.9167 207° Southwest 180 207 3,100  Level Chicago TRACON
06:38PM 41.8500 -87.9167 180° South 241 277 5,600 2,820 Climbing Chicago TRACON
06:39PM 41.7140 -88.1746 201° Southwest  Level Estimated
06:39PM 41.7997 -87.9308 192° South 244 281 8,700  Level Chicago Center
06:40PM 41.6246 -88.2634 197° South  Level Estimated
06:40PM 41.7353 -87.9767 208° Southwest 262 302 11,500  Level Chicago Center
06:41PM 41.5229 -88.2030 156° South  Level FlightAware Approximate
06:41PM 41.6600 -88.0178 202° Southwest 291 335 13,600  Level Chicago Center
06:42PM 41.4340 -88.2924 207° Southwest  Level Estimated
06:42PM 41.5733 -88.0750 206° Southwest 343 395 15,800  Level Chicago Center
06:43PM 41.4644 -88.1406 204° Southwest 364 419 18,800 2,520 Climbing Chicago Center
06:44PM 41.3719 -88.1978 205° Southwest 380 437 21,100 2,040 Climbing Chicago Center
06:45PM 41.2706 -88.2422 198° South 391 450 23,100 1,800 Climbing Chicago Center
06:46PM 41.1656 -88.2889 199° South 402 463 24,900 1,800 Climbing Chicago Center
06:47PM 41.0339 -88.3503 199° South 420 483 26,900 1,500 Climbing Chicago Center
06:48PM 40.9231 -88.4006 199° South 424 488 28,000 480 Climbing Chicago Center
06:49PM 40.8169 -88.4608 203° Southwest 443 510 28,000  Level Chicago Center
06:50PM 40.7414 -88.5722 228° Southwest 413 475 28,000  Level Chicago Center
06:51PM 40.6547 -88.6697 220° Southwest 411 473 28,000  Level Chicago Center
06:52PM 40.5517 -88.7853 220° Southwest 408 470 28,000  Level Chicago Center
06:53PM 40.4667 -88.8858 222° Southwest 410 472 28,000  Level Chicago Center
06:54PM 40.3814 -88.9869 222° Southwest 408 470 28,000  Level Chicago Center
06:55PM 40.2947 -89.0839 220° Southwest 406 467 28,000  Level Chicago Center
06:56PM 40.2094 -89.1842 222° Southwest 408 470 28,000  Level Chicago Center
06:57PM 40.1236 -89.2839 222° Southwest 407 468 28,000  Level Chicago Center
06:58PM 40.0542 -89.3622 221° Southwest 407 468 28,000  Level Kansas City Center
06:58PM 40.0381 -89.3825 224° Southwest 408 470 28,000  Level Chicago Center
06:59PM 39.9533 -89.4794 221° Southwest 403 464 28,000  Level Chicago Center
07:00PM 39.8508 -89.5958 221° Southwest 403 464 28,000  Level Chicago Center
07:01PM 39.7978 -89.6528 220° Southwest 406 467 28,000  Level Kansas City Center
07:02PM 39.7125 -89.7525 222° Southwest 410 472 28,000  Level Kansas City Center
07:03PM 39.6306 -89.8456 221° Southwest 410 472 28,000  Level Kansas City Center
07:04PM 39.5281 -89.9608 221° Southwest 408 470 28,000  Level Kansas City Center
07:05PM 39.4414 -90.0578 221° Southwest 410 472 28,000  Level Kansas City Center
07:06PM 39.3547 -90.1553 221° Southwest 413 475 28,000  Level Kansas City Center
07:07PM 39.2692 -90.2503 221° Southwest 410 472 28,000  Level Kansas City Center
07:08PM 39.1839 -90.3453 221° Southwest 408 470 28,000  Level Kansas City Center
07:09PM 39.0961 -90.4422 221° Southwest 414 476 28,000  Level Kansas City Center
07:10PM 38.9908 -90.5581 221° Southwest 419 482 28,000  Level Kansas City Center
07:11PM 38.9081 -90.6492 221° Southwest 406 467 28,000  Level Kansas City Center
07:12PM 38.8194 -90.7472 221° Southwest 410 472 28,000  Level Kansas City Center
07:13PM 38.7336 -90.8389 220° Southwest 411 473 28,000  Level Kansas City Center
07:14PM 38.6497 -90.9311 221° Southwest 406 467 28,000  Level Kansas City Center
07:15PM 38.5486 -91.0397 220° Southwest 400 460 28,000  Level Kansas City Center
07:16PM 38.4644 -91.1306 220° Southwest 399 459 28,000  Level Kansas City Center
07:17PM 38.3786 -91.2231 220° Southwest 405 466 28,000  Level Kansas City Center
07:18PM 38.2944 -91.3136 220° Southwest 401 461 28,000  Level Kansas City Center
07:19PM 38.2044 -91.4067 219° Southwest 396 456 28,000  Level Kansas City Center
07:21PM 38.1206 -91.4961 220° Southwest 391 450 28,000  Level Kansas City Center
07:22PM 38.0375 -91.5883 221° Southwest 394 453 28,000  Level Kansas City Center
07:23PM 37.9511 -91.6783 219° Southwest 398 458 28,000  Level Kansas City Center
07:24PM 37.8642 -91.7675 219° Southwest 398 458 28,000  Level Kansas City Center
07:25PM 37.7794 -91.8592 221° Southwest 397 457 28,000  Level Kansas City Center
07:26PM 37.6764 -91.9675 220° Southwest 398 458 28,000  Level Kansas City Center
07:27PM 37.5894 -92.0589 220° Southwest 400 460 28,000  Level Kansas City Center
07:28PM 37.5031 -92.1506 220° Southwest 402 463 28,000  Level Kansas City Center
07:29PM 37.4181 -92.2392 220° Southwest 396 456 28,000  Level Kansas City Center
07:30PM 37.3350 -92.3250 219° Southwest 388 447 28,000  Level Kansas City Center
07:31PM 37.2503 -92.4114 219° Southwest 389 448 28,000  Level Kansas City Center
07:32PM 37.1639 -92.5011 220° Southwest 396 456 28,000  Level Kansas City Center
07:33PM 37.0775 -92.5906 220° Southwest 400 460 28,000 420 Level Kansas City Center
07:34PM 36.9889 -92.6794 219° Southwest 405 466 28,900 960 Climbing Kansas City Center
07:36PM 36.8108 -92.8628 220° Southwest 410 472 31,000 660 Climbing Memphis Center
07:37PM 36.7217 -92.9533 219° Southwest 410 472 31,000  Level Memphis Center
07:38PM 36.6342 -93.0408 219° Southwest 410 472 31,000 240 Level Memphis Center
07:39PM 36.5469 -93.1286 219° Southwest 410 472 31,500 480 Climbing Memphis Center
07:40PM 36.4511 -93.2233 218° Southwest 410 472 32,000 240 Climbing Memphis Center
07:41PM 36.3656 -93.3131 220° Southwest 410 472 32,000  Level Memphis Center
07:42PM 36.2781 -93.3975 218° Southwest 410 472 32,000  Level Memphis Center
07:43PM 36.1903 -93.4842 219° Southwest 410 472 32,000  Level Memphis Center
07:44PM 36.1047 -93.5681 218° Southwest 410 472 32,000  Level Memphis Center
07:45PM 36.0256 -93.6472 219° Southwest 410 472 32,000  Level Memphis Center
07:46PM 35.9378 -93.7336 219° Southwest 410 472 32,000  Level Memphis Center
07:47PM 35.8500 -93.8194 218° Southwest 410 472 32,000  Level Memphis Center
07:48PM 35.7642 -93.9056 219° Southwest 410 472 32,000  Level Memphis Center
07:49PM 35.6761 -93.9911 218° Southwest 410 472 32,000  Level Memphis Center
07:50PM 35.5883 -94.0742 218° Southwest 410 472 32,000  Level Memphis Center
07:51PM 35.5000 -94.1619 219° Southwest 410 472 32,000  Level Memphis Center
07:52PM 35.4142 -94.2447 218° Southwest 410 472 32,000  Level Memphis Center
07:53PM 35.3178 -94.3217 213° Southwest 410 472 32,000  Level Memphis Center
07:54PM 35.2214 -94.3983 213° Southwest 416 479 32,000  Level Memphis Center
07:55PM 35.1253 -94.4700 211° Southwest 416 479 32,000  Level Memphis Center
07:56PM 35.0314 -94.5483 214° Southwest 400 460 32,000  Level Fort Worth Center
07:57PM 34.9350 -94.6175 210° Southwest 393 452 32,000  Level Fort Worth Center
07:58PM 34.8489 -94.6861 213° Southwest 403 464 32,000  Level Fort Worth Center
07:59PM 34.7506 -94.7625 213° Southwest 411 473 32,000  Level Fort Worth Center
08:00PM 34.6581 -94.8311 211° Southwest 411 473 32,000  Level Fort Worth Center
08:01PM 34.5614 -94.9019 211° Southwest 406 467 32,000  Level Fort Worth Center
08:02PM 34.4647 -94.9753 212° Southwest 411 473 32,000  Level Fort Worth Center
08:03PM 34.3681 -95.0461 211° Southwest 411 473 32,000  Level Fort Worth Center
08:04PM 34.2714 -95.1189 212° Southwest 411 473 32,000  Level Fort Worth Center
08:05PM 34.1767 -95.1917 212° Southwest 411 473 32,000  Level Fort Worth Center
08:06PM 34.0778 -95.2619 210° Southwest 411 473 32,000  Level Fort Worth Center
08:07PM 33.9789 -95.3344 211° Southwest 411 473 32,000  Level Fort Worth Center
08:08PM 33.8797 -95.4094 212° Southwest 417 480 32,000  Level Fort Worth Center
08:09PM 33.7828 -95.4767 210° Southwest 417 480 32,000  Level Fort Worth Center
08:10PM 33.6881 -95.5511 213° Southwest 417 480 32,000  Level Fort Worth Center
08:11PM 33.5928 -95.6156 209° Southwest 412 474 32,000  Level Fort Worth Center
08:12PM 33.4936 -95.6872 211° Southwest 407 468 32,000  Level Fort Worth Center
08:13PM 33.4008 -95.7589 213° Southwest 407 468 32,000  Level Fort Worth Center
08:14PM 33.3036 -95.8278 211° Southwest 407 468 32,000  Level Fort Worth Center
08:15PM 33.2000 -95.9017 211° Southwest 407 468 32,000  Level Fort Worth Center
08:16PM 33.1008 -95.9753 212° Southwest 413 475 32,000  Level Fort Worth Center
08:17PM 33.0056 -96.0436 211° Southwest 408 470 32,000  Level Fort Worth Center
08:18PM 32.9081 -96.1144 211° Southwest 408 470 32,000  Level Fort Worth Center
08:19PM 32.8106 -96.1825 210° Southwest 408 470 32,000  Level Fort Worth Center
08:20PM 32.7133 -96.2506 211° Southwest 408 470 32,000  Level Fort Worth Center
08:21PM 32.6158 -96.3208 211° Southwest 413 475 32,000  Level Fort Worth Center
08:22PM 32.5203 -96.3883 211° Southwest 413 475 32,000  Level Fort Worth Center
08:23PM 32.4331 -96.4486 210° Southwest 408 470 32,000  Level Fort Worth Center
08:24PM 32.3356 -96.5158 210° Southwest 408 470 32,000  Level Fort Worth Center
08:25PM 32.2400 -96.5856 212° Southwest 408 470 32,000  Level Fort Worth Center
08:26PM 32.1422 -96.6553 211° Southwest 408 470 32,000 -360 Level Fort Worth Center
08:27PM 32.0467 -96.7247 212° Southwest 408 470 31,300 -960 Descending Fort Worth Center
08:28PM 31.9383 -96.7989 210° Southwest 409 471 30,200 -1,200 Descending Fort Worth Center
08:29PM 31.8508 -96.8606 211° Southwest 409 471 29,000 -1,380 Descending Fort Worth Center
08:30PM 31.7469 -96.9319 210° Southwest 414 476 27,500 -1,560 Descending Fort Worth Center
08:31PM 31.6469 -97.0033 211° Southwest 424 488 26,000 -1,560 Descending Fort Worth Center
08:31PM 31.6139 -97.0253 209° Southwest 427 491 25,500 -1,500 Descending Houston Center
08:32PM 31.5094 -97.0931 209° Southwest 426 490 24,000 -1,500 Descending Houston Center
08:33PM 31.3967 -97.1342 197° South 422 486 22,500 -1,500 Descending Houston Center
08:34PM 31.2867 -97.1778 199° South 416 479 20,900 -1,560 Descending Houston Center
08:35PM 31.1789 -97.2203 199° South 407 468 19,400 -1,860 Descending Houston Center
08:36PM 31.0544 -97.2689 199° South 402 463 17,100 -2,040 Descending Houston Center
08:37PM 30.9514 -97.3100 199° South 402 463 15,200 -1,920 Descending Houston Center
08:38PM 30.8478 -97.3489 198° South 399 459 13,200 -1,860 Descending Houston Center
08:39PM 30.7506 -97.3906 200° South 372 428 11,400 -1,500 Descending Houston Center
08:40PM 30.6708 -97.4511 213° Southwest 342 394 10,200 -1,200 Descending Houston Center
08:41PM 30.5972 -97.5161 217° Southwest 289 333 9,000 -1,380 Descending Houston Center
08:42PM 30.5472 -97.5808 228° Southwest 270 311 7,400 -1,500 Descending Houston Center
08:43PM 30.4858 -97.6275 213° Southwest 262 302 6,000 -1,200 Descending Houston Center
08:44PM 30.4244 -97.6564 202° Southwest 244 281 5,000 -1,080 Descending Houston Center
08:46PM 30.3661 -97.6622 185° South 216 249 3,800 -1,200 Descending Houston Center